Portada
METAR-TAF:

METAR-TAF

Aeropuertos :

Corrientes, Argentina

Aeropuerto Internacional Doctor Fernando Piragine Niveyro

latitud: 27-27S, longitud: 058-46W, altitud: 62 m

Observación

El informe se hizo hace 1 hora y 1 minutos, a las 14:00 UTC
Viento 16 kt del noreste
Temperatura 24°C
Humedad 47%
Presión 1017 hPa
Visibilidad: 8000 m

METAR: SARC 281400Z 05016KT 8000 NSC 24/12 Q1017

Hora: 12:01 (15:01 UTC)


TAF: falta

Observaciones y pronósticos meteorológicos de más de 4000 aeropuertos (mensajes METAR y TAF).

Los puntos amarillos y rojos representan las estaciones disponibles.

Ponga el ratón en el punto deseado para ver el nombre de la estación.

Haga clic para ver las observaciones y los pronósticos meteorológicos.

Para cambiar el mapa : haga clic en los botones verdes con una cruz de color negro para hacer un zoom, en el botón verde con un guión para alejar o en las flechas verdes para mapas adyacentes.


METAR-TAF: